Time;durP1;ratioP1;P1;durP2;ratioP2;P2;SDS_P1;SDS_P2;PMS_P1;PMS_P2;Temp;Humidity;BMP_temperature;BMP_pressure;BME280_temperature;BME280_humidity;BME280_pressure;Samples;Min_cycle;Max_cycle;Signal;HPM_P1;HPM_P2
2023/10/20 00:02:25;;;;;;;1999.90;999.90;;;;;;;;;;5062338;28;20052;-88
2023/10/20 00:04:53;;;;;;;1999.90;999.90;;;;;;;;;;5060750;28;20053;-88
2023/10/20 00:07:21;;;;;;;1999.90;999.90;;;;;;;;;;5063757;28;20043;-88
2023/10/20 00:09:49;;;;;;;1999.90;999.90;;;;;;;;;;5060974;28;20053;-88
2023/10/20 00:12:16;;;;;;;1999.90;999.90;;;;;;;;;;5064043;28;20109;-88
2023/10/20 00:14:42;;;;;;;1999.90;999.90;;;;;;;;;;5058653;28;20057;-87
2023/10/20 00:17:09;;;;;;;1999.90;999.90;;;;;;;;;;5062719;28;20478;-88
2023/10/20 00:19:35;;;;;;;1999.90;999.90;;;;;;;;;;5064615;28;20048;-88
2023/10/20 00:22:03;;;;;;;1999.90;999.90;;;;;;;;;;5062092;28;20064;-87
2023/10/20 00:24:29;;;;;;;1999.90;999.90;;;;;;;;;;5059921;28;20055;-87
2023/10/20 00:26:57;;;;;;;1999.90;999.90;;;;;;;;;;5058255;28;20072;-88
2023/10/20 00:29:25;;;;;;;1999.90;999.90;;;;;;;;;;5062487;28;20139;-87
2023/10/20 00:31:51;;;;;;;1999.90;999.90;;;;;;;;;;5061306;28;20052;-87
2023/10/20 00:34:18;;;;;;;1999.90;999.90;;;;;;;;;;5061773;28;20052;-88
2023/10/20 00:36:45;;;;;;;1999.90;999.90;;;;;;;;;;5061174;28;20045;-88
2023/10/20 00:39:13;;;;;;;1999.90;999.90;;;;;;;;;;5065036;28;20051;-86
2023/10/20 00:41:39;;;;;;;1999.90;999.90;;;;;;;;;;5061484;28;20138;-86
2023/10/20 00:44:06;;;;;;;1999.90;999.90;;;;;;;;;;5060144;28;20041;-88
2023/10/20 00:46:33;;;;;;;1999.90;999.90;;;;;;;;;;5061800;28;20049;-91
2023/10/20 00:48:59;;;;;;;1999.90;999.90;;;;;;;;;;5061621;28;20048;-88
2023/10/20 00:51:26;;;;;;;1999.90;999.90;;;;;;;;;;5057621;28;20044;-88
2023/10/20 00:53:52;;;;;;;1999.90;999.90;;;;;;;;;;5066035;28;20057;-88
2023/10/20 00:56:21;;;;;;;1999.90;999.90;;;;;;;;;;5062691;28;20045;-88
2023/10/20 00:58:48;;;;;;;1999.90;999.90;;;;;;;;;;5061508;28;20079;-88
2023/10/20 01:01:14;;;;;;;1999.90;999.90;;;;;;;;;;5056247;28;20051;-87
2023/10/20 01:03:41;;;;;;;1999.90;999.90;;;;;;;;;;5059029;28;20045;-88
2023/10/20 01:06:07;;;;;;;1999.90;999.90;;;;;;;;;;5060533;28;20488;-87
2023/10/20 01:08:34;;;;;;;1999.90;999.90;;;;;;;;;;5059737;28;20132;-87
2023/10/20 01:11:00;;;;;;;1999.90;999.90;;;;;;;;;;5054124;28;20477;-87
2023/10/20 01:13:28;;;;;;;1999.90;999.90;;;;;;;;;;5058436;28;20044;-88
2023/10/20 01:15:55;;;;;;;1999.90;999.90;;;;;;;;;;5056468;28;20482;-87
2023/10/20 01:18:21;;;;;;;1999.90;999.90;;;;;;;;;;5055801;28;20051;-88
2023/10/20 01:20:48;;;;;;;1999.90;999.90;;;;;;;;;;5062431;28;20055;-87
2023/10/20 01:23:14;;;;;;;1999.90;999.90;;;;;;;;;;5062395;28;20041;-91
2023/10/20 01:25:43;;;;;;;1999.90;999.90;;;;;;;;;;5060286;28;20055;-87
2023/10/20 01:28:10;;;;;;;1999.90;999.90;;;;;;;;;;5057465;28;20202;-90
2023/10/20 01:30:37;;;;;;;1999.90;999.90;;;;;;;;;;5060474;28;20106;-88
2023/10/20 01:33:03;;;;;;;1999.90;999.90;;;;;;;;;;5060040;28;20418;-89
2023/10/20 01:35:30;;;;;;;1999.90;999.90;;;;;;;;;;5064824;28;20049;-87
2023/10/20 01:37:57;;;;;;;1999.90;999.90;;;;;;;;;;5060581;28;20052;-91
2023/10/20 01:40:23;;;;;;;1999.90;999.90;;;;;;;;;;5057928;28;20053;-87
2023/10/20 01:42:54;;;;;;;1999.90;999.90;;;;;;;;;;5057473;28;20052;-87
2023/10/20 01:45:21;;;;;;;1999.90;999.90;;;;;;;;;;5062271;28;20067;-87
2023/10/20 01:47:48;;;;;;;1999.90;999.90;;;;;;;;;;5059321;28;20499;-90
2023/10/20 01:50:15;;;;;;;1999.90;999.90;;;;;;;;;;5055589;28;20043;-87
2023/10/20 01:52:42;;;;;;;1999.90;999.90;;;;;;;;;;5059248;28;20047;-86
2023/10/20 01:55:09;;;;;;;1999.90;999.90;;;;;;;;;;5058066;28;20051;-88
2023/10/20 01:57:35;;;;;;;1999.90;999.90;;;;;;;;;;5060995;28;20041;-89
2023/10/20 02:00:03;;;;;;;1999.90;999.90;;;;;;;;;;5059971;28;20048;-88
2023/10/20 02:02:30;;;;;;;1999.90;999.90;;;;;;;;;;5058852;28;20037;-87
2023/10/20 02:04:56;;;;;;;1999.90;999.90;;;;;;;;;;5064114;28;20049;-86
2023/10/20 02:07:23;;;;;;;1999.90;999.90;;;;;;;;;;5055864;28;20044;-87
2023/10/20 02:09:50;;;;;;;1999.90;999.90;;;;;;;;;;5057985;28;20055;-89
2023/10/20 02:12:17;;;;;;;1999.90;999.90;;;;;;;;;;5055417;28;20049;-88
2023/10/20 02:14:43;;;;;;;1999.90;999.90;;;;;;;;;;5059817;28;20045;-88
2023/10/20 02:17:11;;;;;;;1999.90;999.90;;;;;;;;;;5063964;28;20055;-88
2023/10/20 02:19:38;;;;;;;1999.90;999.90;;;;;;;;;;5058279;28;20045;-87
2023/10/20 02:22:04;;;;;;;1999.90;999.90;;;;;;;;;;5053619;28;20052;-88
2023/10/20 02:24:31;;;;;;;1999.90;999.90;;;;;;;;;;5059411;28;20136;-88
2023/10/20 02:26:58;;;;;;;1999.90;999.90;;;;;;;;;;5057806;28;20394;-87
2023/10/20 02:29:25;;;;;;;1999.90;999.90;;;;;;;;;;5058642;28;20497;-89
2023/10/20 02:31:51;;;;;;;1999.90;999.90;;;;;;;;;;5060801;28;20056;-89
2023/10/20 02:34:19;;;;;;;1999.90;999.90;;;;;;;;;;5056588;28;20057;-88
2023/10/20 02:36:49;;;;;;;1999.90;999.90;;;;;;;;;;5058908;28;20052;-87
2023/10/20 02:39:15;;;;;;;1999.90;999.90;;;;;;;;;;5059771;28;20499;-89
2023/10/20 02:41:42;;;;;;;1999.90;999.90;;;;;;;;;;5059660;28;20055;-89
2023/10/20 02:44:08;;;;;;;1999.90;999.90;;;;;;;;;;5056137;28;20040;-86
2023/10/20 02:46:35;;;;;;;1999.90;999.90;;;;;;;;;;5060147;28;20049;-88
2023/10/20 02:49:02;;;;;;;1999.90;999.90;;;;;;;;;;5053862;28;20040;-86
2023/10/20 02:51:30;;;;;;;1999.90;999.90;;;;;;;;;;5055723;28;20421;-88
2023/10/20 02:53:56;;;;;;;1999.90;999.90;;;;;;;;;;5058681;28;20080;-88
2023/10/20 02:56:23;;;;;;;1999.90;999.90;;;;;;;;;;5057522;28;20053;-88
2023/10/20 02:58:50;;;;;;;1999.90;999.90;;;;;;;;;;5058316;28;20509;-88
2023/10/20 03:01:18;;;;;;;1999.90;999.90;;;;;;;;;;5060074;28;20045;-88
2023/10/20 03:03:45;;;;;;;1999.90;999.90;;;;;;;;;;5058977;28;20517;-87
2023/10/20 03:06:11;;;;;;;1999.90;999.90;;;;;;;;;;5063399;28;20513;-88
2023/10/20 03:08:40;;;;;;;1999.90;999.90;;;;;;;;;;5061661;28;20045;-86
2023/10/20 03:11:07;;;;;;;1999.90;999.90;;;;;;;;;;5057559;28;20049;-87
2023/10/20 03:13:34;;;;;;;1999.90;999.90;;;;;;;;;;5064729;28;20048;-86
2023/10/20 03:16:00;;;;;;;1999.90;999.90;;;;;;;;;;5060773;28;20591;-85
2023/10/20 03:18:27;;;;;;;1999.90;999.90;;;;;;;;;;5061953;28;20051;-88
2023/10/20 03:20:53;;;;;;;1999.90;999.90;;;;;;;;;;5058090;28;20053;-87
2023/10/20 03:23:20;;;;;;;1999.90;999.90;;;;;;;;;;5059072;28;20090;-88
2023/10/20 03:25:48;;;;;;;1999.90;999.90;;;;;;;;;;5063741;28;20053;-87
2023/10/20 03:28:15;;;;;;;1999.90;999.90;;;;;;;;;;5059792;28;20064;-87
2023/10/20 03:30:43;;;;;;;1999.90;999.90;;;;;;;;;;5063434;28;20048;-87
2023/10/20 03:33:10;;;;;;;1999.90;999.90;;;;;;;;;;5062048;28;20481;-88
2023/10/20 03:35:37;;;;;;;1999.90;999.90;;;;;;;;;;5059007;28;20133;-85
2023/10/20 03:38:04;;;;;;;1999.90;999.90;;;;;;;;;;5062024;28;20493;-86
2023/10/20 03:40:36;;;;;;;1999.90;999.90;;;;;;;;;;5057692;28;20489;-86
2023/10/20 03:43:04;;;;;;;1999.90;999.90;;;;;;;;;;5064822;28;20124;-87
2023/10/20 03:45:39;;;;;;;1999.90;999.90;;;;;;;;;;5062617;28;20127;-85
2023/10/20 03:48:06;;;;;;;1999.90;999.90;;;;;;;;;;5059870;28;20083;-87
2023/10/20 03:50:36;;;;;;;1999.90;999.90;;;;;;;;;;5060949;28;20044;-88
2023/10/20 03:53:03;;;;;;;1999.90;999.90;;;;;;;;;;5058521;28;20051;-87
2023/10/20 03:55:30;;;;;;;1999.90;999.90;;;;;;;;;;5062680;28;20044;-86
2023/10/20 03:57:56;;;;;;;1999.90;999.90;;;;;;;;;;5061113;28;20053;-86
2023/10/20 04:00:28;;;;;;;1999.90;999.90;;;;;;;;;;5061238;28;20053;-85
2023/10/20 04:02:54;;;;;;;1999.90;999.90;;;;;;;;;;5059510;28;20060;-88
2023/10/20 04:05:22;;;;;;;1999.90;999.90;;;;;;;;;;5061469;28;20051;-89
2023/10/20 04:07:48;;;;;;;1999.90;999.90;;;;;;;;;;5058866;28;20059;-85
2023/10/20 04:10:15;;;;;;;1999.90;999.90;;;;;;;;;;5062076;28;20502;-89
2023/10/20 04:12:44;;;;;;;1999.90;999.90;;;;;;;;;;5063605;28;20036;-85
2023/10/20 04:15:14;;;;;;;1999.90;999.90;;;;;;;;;;5063245;28;20049;-86
2023/10/20 04:17:44;;;;;;;1999.90;999.90;;;;;;;;;;5063619;28;20078;-86
2023/10/20 04:20:17;;;;;;;1999.90;999.90;;;;;;;;;;5058520;28;20056;-85
2023/10/20 04:22:45;;;;;;;1999.90;999.90;;;;;;;;;;5062273;28;20040;-88
2023/10/20 04:25:15;;;;;;;1999.90;999.90;;;;;;;;;;5065839;28;20044;-87
2023/10/20 04:27:48;;;;;;;1999.90;999.90;;;;;;;;;;5068219;28;20155;-87
2023/10/20 04:55:57;;;;;;;1999.90;999.90;;;;;;;;;;5061650;28;20133;-85
2023/10/20 04:57:52;;;;;;;1999.90;999.90;;;;;;;;;;5058577;28;20106;-86
2023/10/20 05:00:34;;;;;;;1999.90;999.90;;;;;;;;;;5058124;28;20037;-87
2023/10/20 05:03:15;;;;;;;1999.90;999.90;;;;;;;;;;5054964;28;20066;-89
2023/10/20 05:05:52;;;;;;;1999.90;999.90;;;;;;;;;;5059981;28;20043;-84
2023/10/20 05:08:20;;;;;;;1999.90;999.90;;;;;;;;;;5061094;28;20102;-85
2023/10/20 05:10:49;;;;;;;1999.90;999.90;;;;;;;;;;5057738;28;20060;-84
2023/10/20 05:13:16;;;;;;;1999.90;999.90;;;;;;;;;;5055144;28;20045;-84
2023/10/20 05:15:43;;;;;;;1999.90;999.90;;;;;;;;;;5058336;28;20432;-85
2023/10/20 05:18:12;;;;;;;1999.90;999.90;;;;;;;;;;5054601;28;20040;-85
2023/10/20 05:20:39;;;;;;;1999.90;999.90;;;;;;;;;;5060829;28;20048;-84
2023/10/20 05:23:07;;;;;;;1999.90;999.90;;;;;;;;;;5057735;28;20045;-85
2023/10/20 05:25:34;;;;;;;1999.90;999.90;;;;;;;;;;5061134;28;20040;-84
2023/10/20 05:28:01;;;;;;;1999.90;999.90;;;;;;;;;;5060045;28;20055;-85
2023/10/20 05:30:27;;;;;;;1999.90;999.90;;;;;;;;;;5057024;28;20048;-85
2023/10/20 05:32:54;;;;;;;1999.90;999.90;;;;;;;;;;5054559;28;20054;-85
2023/10/20 05:35:20;;;;;;;1999.90;999.90;;;;;;;;;;5060259;28;20055;-85
2023/10/20 05:37:47;;;;;;;1999.90;999.90;;;;;;;;;;5056281;28;20489;-86
2023/10/20 05:40:15;;;;;;;1999.90;999.90;;;;;;;;;;5056939;28;20608;-86
2023/10/20 05:42:42;;;;;;;1999.90;999.90;;;;;;;;;;5060489;28;20041;-86
2023/10/20 05:45:17;;;;;;;1999.90;999.90;;;;;;;;;;5058098;28;20135;-86
2023/10/20 05:47:43;;;;;;;1999.90;999.90;;;;;;;;;;5062407;28;20050;-92
2023/10/20 05:50:11;;;;;;;1999.90;999.90;;;;;;;;;;5059197;28;20473;-93
2023/10/20 05:52:39;;;;;;;1999.90;999.90;;;;;;;;;;5059239;28;20391;-87
2023/10/20 05:55:07;;;;;;;1999.90;999.90;;;;;;;;;;5063031;28;20048;-85
2023/10/20 05:57:35;;;;;;;1999.90;999.90;;;;;;;;;;5059930;28;20059;-91
2023/10/20 06:00:03;;;;;;;1999.90;999.90;;;;;;;;;;5063549;28;20048;-85
2023/10/20 06:02:31;;;;;;;1999.90;999.90;;;;;;;;;;5060252;28;20056;-85
2023/10/20 06:04:58;;;;;;;1999.90;999.90;;;;;;;;;;5061574;28;20118;-85
2023/10/20 06:07:24;;;;;;;1999.90;999.90;;;;;;;;;;5058908;28;20037;-85
2023/10/20 06:09:51;;;;;;;1999.90;999.90;;;;;;;;;;5063854;28;20052;-86
2023/10/20 06:12:17;;;;;;;1999.90;999.90;;;;;;;;;;5060095;28;20048;-90
2023/10/20 06:14:46;;;;;;;1999.90;999.90;;;;;;;;;;5059116;28;20053;-87
2023/10/20 06:17:17;;;;;;;1999.90;999.90;;;;;;;;;;5058143;28;20040;-87
2023/10/20 06:19:44;;;;;;;1999.90;999.90;;;;;;;;;;5062591;28;20045;-87
2023/10/20 06:22:10;;;;;;;1999.90;999.90;;;;;;;;;;5059884;28;20060;-82
2023/10/20 06:24:37;;;;;;;1999.90;999.90;;;;;;;;;;5055793;28;20128;-82
2023/10/20 06:27:04;;;;;;;1999.90;999.90;;;;;;;;;;5058369;28;20044;-83
2023/10/20 06:29:42;;;;;;;1999.90;999.90;;;;;;;;;;5060605;28;20404;-81
2023/10/20 06:32:21;;;;;;;1999.90;999.90;;;;;;;;;;5055068;28;20276;-84
2023/10/20 06:34:49;;;;;;;1999.90;999.90;;;;;;;;;;5053725;28;20053;-82
2023/10/20 06:37:24;;;;;;;1999.90;999.90;;;;;;;;;;5062018;28;20067;-86
2023/10/20 06:39:50;;;;;;;1999.90;999.90;;;;;;;;;;5063153;28;20140;-82
2023/10/20 06:42:17;;;;;;;1999.90;999.90;;;;;;;;;;5062208;28;20057;-82
2023/10/20 06:44:44;;;;;;;1999.90;999.90;;;;;;;;;;5059491;28;20044;-84
2023/10/20 06:47:11;;;;;;;1999.90;999.90;;;;;;;;;;5058433;28;20048;-82
2023/10/20 06:49:38;;;;;;;1999.90;999.90;;;;;;;;;;5064820;28;20048;-83
2023/10/20 06:52:05;;;;;;;1999.90;999.90;;;;;;;;;;5065617;28;20048;-83
2023/10/20 06:54:32;;;;;;;1999.90;999.90;;;;;;;;;;5061562;28;20067;-84
2023/10/20 06:56:59;;;;;;;1999.90;999.90;;;;;;;;;;5059911;28;20057;-83
2023/10/20 06:59:26;;;;;;;1999.90;999.90;;;;;;;;;;5058159;28;20045;-82
2023/10/20 07:01:57;;;;;;;1999.90;999.90;;;;;;;;;;5058150;28;20465;-86
2023/10/20 07:04:26;;;;;;;1999.90;999.90;;;;;;;;;;5060141;28;20132;-82
2023/10/20 07:06:53;;;;;;;1999.90;999.90;;;;;;;;;;5063099;28;20080;-83
2023/10/20 07:09:20;;;;;;;1999.90;999.90;;;;;;;;;;5059752;28;20049;-84
2023/10/20 07:11:48;;;;;;;1999.90;999.90;;;;;;;;;;5061436;28;20055;-82
2023/10/20 07:14:14;;;;;;;1999.90;999.90;;;;;;;;;;5065059;28;20045;-83
2023/10/20 07:16:41;;;;;;;1999.90;999.90;;;;;;;;;;5058965;28;20052;-84
2023/10/20 07:19:08;;;;;;;1999.90;999.90;;;;;;;;;;5060232;28;20464;-84
2023/10/20 07:21:36;;;;;;;1999.90;999.90;;;;;;;;;;5061064;28;20044;-83
2023/10/20 07:24:03;;;;;;;1999.90;999.90;;;;;;;;;;5058850;28;20048;-82
2023/10/20 07:26:30;;;;;;;1999.90;999.90;;;;;;;;;;5063336;28;20386;-83
2023/10/20 07:28:56;;;;;;;1999.90;999.90;;;;;;;;;;5060676;28;20045;-85
2023/10/20 07:31:23;;;;;;;1999.90;999.90;;;;;;;;;;5059149;28;20052;-85
2023/10/20 07:33:50;;;;;;;1999.90;999.90;;;;;;;;;;5061131;28;20041;-82
2023/10/20 07:36:16;;;;;;;1999.90;999.90;;;;;;;;;;5062602;28;20052;-83
2023/10/20 07:38:44;;;;;;;1999.90;999.90;;;;;;;;;;5062793;28;20048;-82
2023/10/20 07:41:12;;;;;;;1999.90;999.90;;;;;;;;;;5058144;28;20053;-82
2023/10/20 07:43:39;;;;;;;1999.90;999.90;;;;;;;;;;5060021;28;20037;-82
2023/10/20 07:46:05;;;;;;;1999.90;999.90;;;;;;;;;;5058059;28;20251;-83
2023/10/20 07:48:32;;;;;;;1999.90;999.90;;;;;;;;;;5059860;28;20045;-82
2023/10/20 07:51:00;;;;;;;1999.90;999.90;;;;;;;;;;5055481;28;20056;-83
2023/10/20 07:53:26;;;;;;;1999.90;999.90;;;;;;;;;;5057357;28;20053;-82
2023/10/20 07:55:54;;;;;;;1999.90;999.90;;;;;;;;;;5061757;28;20060;-83
2023/10/20 07:58:20;;;;;;;1999.90;999.90;;;;;;;;;;5061151;28;20041;-83
2023/10/20 08:00:47;;;;;;;1999.90;999.90;;;;;;;;;;5060617;28;20045;-84
2023/10/20 08:03:13;;;;;;;1999.90;999.90;;;;;;;;;;5060066;28;20044;-85
2023/10/20 08:05:40;;;;;;;1999.90;999.90;;;;;;;;;;5059495;28;20056;-84
2023/10/20 08:08:07;;;;;;;1999.90;999.90;;;;;;;;;;5058966;28;20048;-83
2023/10/20 08:10:34;;;;;;;1999.90;999.90;;;;;;;;;;5058470;28;20041;-84
2023/10/20 08:13:02;;;;;;;1999.90;999.90;;;;;;;;;;5062015;28;20056;-84
2023/10/20 08:15:29;;;;;;;1999.90;999.90;;;;;;;;;;5063853;28;20059;-83
2023/10/20 08:17:56;;;;;;;1999.90;999.90;;;;;;;;;;5058070;28;20384;-84
2023/10/20 08:20:22;;;;;;;1999.90;999.90;;;;;;;;;;5061569;28;20051;-84
2023/10/20 08:22:49;;;;;;;1999.90;999.90;;;;;;;;;;5059569;28;20065;-84
2023/10/20 08:25:16;;;;;;;1999.90;999.90;;;;;;;;;;5066076;28;20071;-84
2023/10/20 08:27:43;;;;;;;1999.90;999.90;;;;;;;;;;5067422;28;20045;-83
2023/10/20 08:30:12;;;;;;;1999.90;999.90;;;;;;;;;;5067760;28;20048;-85
2023/10/20 08:32:39;;;;;;;1999.90;999.90;;;;;;;;;;5061886;28;20558;-84
2023/10/20 08:35:08;;;;;;;1999.90;999.90;;;;;;;;;;5063259;28;20052;-82
2023/10/20 08:37:35;;;;;;;1999.90;999.90;;;;;;;;;;5059619;28;20503;-83
2023/10/20 08:40:02;;;;;;;1999.90;999.90;;;;;;;;;;5065681;28;20072;-84
2023/10/20 08:42:29;;;;;;;1999.90;999.90;;;;;;;;;;5063830;28;20434;-83
2023/10/20 08:45:01;;;;;;;1999.90;999.90;;;;;;;;;;5064480;28;20072;-83
2023/10/20 08:47:29;;;;;;;1999.90;999.90;;;;;;;;;;5057669;28;20440;-85
2023/10/20 08:49:56;;;;;;;1999.90;999.90;;;;;;;;;;5061618;28;20052;-85
2023/10/20 08:52:23;;;;;;;1999.90;999.90;;;;;;;;;;5057937;28;20053;-84
2023/10/20 08:54:51;;;;;;;1999.90;999.90;;;;;;;;;;5062401;28;20248;-85
2023/10/20 08:57:17;;;;;;;1999.90;999.90;;;;;;;;;;5062113;28;20055;-85
2023/10/20 08:59:51;;;;;;;1999.90;999.90;;;;;;;;;;5054561;28;20287;-84
2023/10/20 09:02:18;;;;;;;1999.90;999.90;;;;;;;;;;5061935;28;20560;-84
2023/10/20 09:04:50;;;;;;;1999.90;999.90;;;;;;;;;;5063329;28;20044;-84
2023/10/20 09:07:17;;;;;;;1999.90;999.90;;;;;;;;;;5062990;28;20037;-85
2023/10/20 09:09:44;;;;;;;1999.90;999.90;;;;;;;;;;5062387;28;20041;-85
2023/10/20 09:12:11;;;;;;;1999.90;999.90;;;;;;;;;;5057339;28;20408;-85
2023/10/20 09:14:38;;;;;;;1999.90;999.90;;;;;;;;;;5059817;28;20045;-84
2023/10/20 09:17:05;;;;;;;1999.90;999.90;;;;;;;;;;5060447;28;20079;-85
2023/10/20 09:19:32;;;;;;;1999.90;999.90;;;;;;;;;;5059187;28;20555;-86
2023/10/20 09:21:59;;;;;;;1999.90;999.90;;;;;;;;;;5055886;28;20467;-86
2023/10/20 09:24:28;;;;;;;1999.90;999.90;;;;;;;;;;5057341;28;20040;-83
2023/10/20 09:26:56;;;;;;;1999.90;999.90;;;;;;;;;;5058328;28;20055;-85
2023/10/20 09:29:23;;;;;;;1999.90;999.90;;;;;;;;;;5059876;28;20056;-84
2023/10/20 09:31:50;;;;;;;1999.90;999.90;;;;;;;;;;5058694;28;20044;-86
2023/10/20 09:34:17;;;;;;;1999.90;999.90;;;;;;;;;;5060198;28;20049;-84
2023/10/20 09:36:45;;;;;;;1999.90;999.90;;;;;;;;;;5057809;28;20049;-85
2023/10/20 09:39:16;;;;;;;1999.90;999.90;;;;;;;;;;5059539;28;20082;-86
2023/10/20 09:41:44;;;;;;;1999.90;999.90;;;;;;;;;;5055376;28;20056;-86
2023/10/20 09:44:14;;;;;;;1999.90;999.90;;;;;;;;;;5058315;28;20452;-84
2023/10/20 09:46:47;;;;;;;1999.90;999.90;;;;;;;;;;5058777;28;20037;-83
2023/10/20 09:49:16;;;;;;;1999.90;999.90;;;;;;;;;;5060149;28;20052;-84
2023/10/20 09:51:45;;;;;;;1999.90;999.90;;;;;;;;;;5059309;28;20068;-85
2023/10/20 09:54:13;;;;;;;1999.90;999.90;;;;;;;;;;5058366;28;20045;-86
2023/10/20 09:56:40;;;;;;;1999.90;999.90;;;;;;;;;;5056675;28;20535;-86
2023/10/20 09:59:08;;;;;;;1999.90;999.90;;;;;;;;;;5060011;28;20044;-85
2023/10/20 10:01:35;;;;;;;1999.90;999.90;;;;;;;;;;5057421;28;20102;-85
2023/10/20 10:04:03;;;;;;;1999.90;999.90;;;;;;;;;;5059420;28;20040;-83
2023/10/20 10:06:35;;;;;;;1999.90;999.90;;;;;;;;;;5060132;28;20053;-84
2023/10/20 10:09:03;;;;;;;1999.90;999.90;;;;;;;;;;5060300;28;20048;-84
2023/10/20 10:11:34;;;;;;;1999.90;999.90;;;;;;;;;;5061818;28;20493;-85
2023/10/20 10:14:02;;;;;;;1999.90;999.90;;;;;;;;;;5059362;28;20065;-84
2023/10/20 10:16:28;;;;;;;1999.90;999.90;;;;;;;;;;5062849;28;20386;-84
2023/10/20 10:18:55;;;;;;;1999.90;999.90;;;;;;;;;;5060271;28;20044;-84
2023/10/20 10:21:24;;;;;;;1999.90;999.90;;;;;;;;;;5061964;28;20400;-84
2023/10/20 10:24:13;;;;;;;1999.90;999.90;;;;;;;;;;5060936;28;20051;-84
2023/10/20 10:27:04;;;;;;;1999.90;999.90;;;;;;;;;;5060404;28;20079;-85
2023/10/20 10:29:49;;;;;;;1999.90;999.90;;;;;;;;;;5057875;28;20120;-83
2023/10/20 10:32:17;;;;;;;1999.90;999.90;;;;;;;;;;5060110;28;20052;-84
2023/10/20 10:34:44;;;;;;;1999.90;999.90;;;;;;;;;;5063428;28;20567;-83
2023/10/20 10:37:11;;;;;;;1999.90;999.90;;;;;;;;;;5068357;28;20056;-84
2023/10/20 10:39:37;;;;;;;1999.90;999.90;;;;;;;;;;5059353;28;20045;-85
2023/10/20 10:42:06;;;;;;;1999.90;999.90;;;;;;;;;;5063119;28;20049;-83
2023/10/20 10:44:34;;;;;;;1999.90;999.90;;;;;;;;;;5063368;28;20058;-85
2023/10/20 10:47:01;;;;;;;1999.90;999.90;;;;;;;;;;5061614;28;20052;-84
2023/10/20 10:49:27;;;;;;;1999.90;999.90;;;;;;;;;;5063405;28;20048;-85
2023/10/20 10:51:55;;;;;;;1999.90;999.90;;;;;;;;;;5062969;28;20057;-84
2023/10/20 10:54:23;;;;;;;1999.90;999.90;;;;;;;;;;5065897;28;20072;-84
2023/10/20 10:56:50;;;;;;;1999.90;999.90;;;;;;;;;;5062362;28;20092;-84
2023/10/20 10:59:19;;;;;;;1999.90;999.90;;;;;;;;;;5060216;28;20047;-84
2023/10/20 11:01:46;;;;;;;1999.90;999.90;;;;;;;;;;5066798;28;20044;-84
2023/10/20 11:04:13;;;;;;;1999.90;999.90;;;;;;;;;;5057173;28;20393;-83
2023/10/20 11:06:40;;;;;;;1999.90;999.90;;;;;;;;;;5064877;28;20054;-84
2023/10/20 11:09:10;;;;;;;1999.90;999.90;;;;;;;;;;5060783;28;20055;-82
2023/10/20 11:11:41;;;;;;;1999.90;999.90;;;;;;;;;;5058971;28;20052;-81
2023/10/20 11:14:07;;;;;;;1999.90;999.90;;;;;;;;;;5059643;28;20044;-83
2023/10/20 11:16:36;;;;;;;1999.90;999.90;;;;;;;;;;5059750;28;20055;-83
2023/10/20 11:19:02;;;;;;;1999.90;999.90;;;;;;;;;;5060877;28;20049;-81
2023/10/20 11:21:29;;;;;;;1999.90;999.90;;;;;;;;;;5059308;28;20048;-82
2023/10/20 11:23:56;;;;;;;1999.90;999.90;;;;;;;;;;5059961;28;20090;-82
2023/10/20 11:26:24;;;;;;;1999.90;999.90;;;;;;;;;;5061967;28;20055;-82
2023/10/20 11:28:51;;;;;;;1999.90;999.90;;;;;;;;;;5058809;28;20570;-81
2023/10/20 11:31:19;;;;;;;1999.90;999.90;;;;;;;;;;5062340;28;20048;-82
2023/10/20 11:33:46;;;;;;;1999.90;999.90;;;;;;;;;;5063270;28;20047;-80
2023/10/20 11:36:13;;;;;;;1999.90;999.90;;;;;;;;;;5061214;28;20045;-83
2023/10/20 11:38:40;;;;;;;1999.90;999.90;;;;;;;;;;5060337;28;20052;-83
2023/10/20 11:41:06;;;;;;;1999.90;999.90;;;;;;;;;;5058740;28;20401;-82
2023/10/20 11:43:33;;;;;;;1999.90;999.90;;;;;;;;;;5059964;28;20040;-80
2023/10/20 11:45:58;;;;;;;1999.90;999.90;;;;;;;;;;5064482;28;20044;-81
2023/10/20 11:48:25;;;;;;;1999.90;999.90;;;;;;;;;;5062375;28;20048;-80
2023/10/20 11:50:53;;;;;;;1999.90;999.90;;;;;;;;;;5063298;28;20049;-80
2023/10/20 11:53:19;;;;;;;1999.90;999.90;;;;;;;;;;5060395;28;20131;-81
2023/10/20 11:55:46;;;;;;;1999.90;999.90;;;;;;;;;;5063654;28;20037;-81
2023/10/20 11:58:12;;;;;;;1999.90;999.90;;;;;;;;;;5057302;28;20048;-80
2023/10/20 12:00:41;;;;;;;1999.90;999.90;;;;;;;;;;5059603;28;20055;-81
2023/10/20 12:03:08;;;;;;;1999.90;999.90;;;;;;;;;;5058845;28;20041;-81
2023/10/20 12:05:36;;;;;;;1999.90;999.90;;;;;;;;;;5058678;28;20118;-81
2023/10/20 12:08:05;;;;;;;1999.90;999.90;;;;;;;;;;5059833;28;20045;-81
2023/10/20 12:10:32;;;;;;;1999.90;999.90;;;;;;;;;;5061861;28;20048;-80
2023/10/20 12:13:02;;;;;;;1999.90;999.90;;;;;;;;;;5057293;28;20052;-81
2023/10/20 12:15:28;;;;;;;1999.90;999.90;;;;;;;;;;5060803;28;20048;-81
2023/10/20 12:17:55;;;;;;;1999.90;999.90;;;;;;;;;;5061023;28;20045;-81
2023/10/20 12:20:21;;;;;;;1999.90;999.90;;;;;;;;;;5060623;28;20071;-81
2023/10/20 12:22:51;;;;;;;1999.90;999.90;;;;;;;;;;5059546;28;20051;-80
2023/10/20 12:25:19;;;;;;;1999.90;999.90;;;;;;;;;;5060600;28;20080;-81
2023/10/20 12:27:45;;;;;;;1999.90;999.90;;;;;;;;;;5059884;28;20040;-82
2023/10/20 12:30:12;;;;;;;1999.90;999.90;;;;;;;;;;5059337;28;20347;-80
2023/10/20 12:32:39;;;;;;;1999.90;999.90;;;;;;;;;;5058281;28;20129;-82
2023/10/20 12:35:06;;;;;;;1999.90;999.90;;;;;;;;;;5063255;28;20051;-82
2023/10/20 12:37:32;;;;;;;1999.90;999.90;;;;;;;;;;5052723;28;20482;-80
2023/10/20 12:39:59;;;;;;;1999.90;999.90;;;;;;;;;;5063502;28;20125;-80
2023/10/20 12:42:27;;;;;;;1999.90;999.90;;;;;;;;;;5062808;28;20052;-82
2023/10/20 12:44:54;;;;;;;1999.90;999.90;;;;;;;;;;5058813;28;20401;-80
2023/10/20 12:47:22;;;;;;;1999.90;999.90;;;;;;;;;;5064323;28;20044;-80
2023/10/20 12:49:49;;;;;;;1999.90;999.90;;;;;;;;;;5059355;28;20049;-82
2023/10/20 12:52:15;;;;;;;1999.90;999.90;;;;;;;;;;5062528;28;20045;-82
2023/10/20 12:54:42;;;;;;;1999.90;999.90;;;;;;;;;;5061278;28;20508;-82
2023/10/20 12:57:08;;;;;;;1999.90;999.90;;;;;;;;;;5060392;28;20056;-82
2023/10/20 12:59:36;;;;;;;1999.90;999.90;;;;;;;;;;5065903;28;20502;-80
2023/10/20 13:02:04;;;;;;;1999.90;999.90;;;;;;;;;;5056456;28;20040;-82
2023/10/20 13:04:30;;;;;;;1999.90;999.90;;;;;;;;;;5057840;28;20098;-82
2023/10/20 13:06:57;;;;;;;1999.90;999.90;;;;;;;;;;5060686;28;20500;-81
2023/10/20 13:09:23;;;;;;;1999.90;999.90;;;;;;;;;;5059133;28;20056;-82
2023/10/20 13:11:50;;;;;;;1999.90;999.90;;;;;;;;;;5062149;28;20045;-81
2023/10/20 13:14:17;;;;;;;1999.90;999.90;;;;;;;;;;5058037;28;20040;-81
2023/10/20 13:16:44;;;;;;;1999.90;999.90;;;;;;;;;;5057533;28;20399;-81
2023/10/20 13:19:12;;;;;;;1999.90;999.90;;;;;;;;;;5058423;28;20474;-82
2023/10/20 13:21:38;;;;;;;1999.90;999.90;;;;;;;;;;5056722;28;20047;-80
2023/10/20 13:24:06;;;;;;;1999.90;999.90;;;;;;;;;;5062731;28;20048;-82
2023/10/20 13:26:33;;;;;;;1999.90;999.90;;;;;;;;;;5057497;28;20409;-83
2023/10/20 13:28:59;;;;;;;1999.90;999.90;;;;;;;;;;5057222;28;20631;-81
2023/10/20 13:31:26;;;;;;;1999.90;999.90;;;;;;;;;;5055396;28;20048;-82
2023/10/20 13:33:55;;;;;;;1999.90;999.90;;;;;;;;;;5059575;28;20099;-83
2023/10/20 13:36:21;;;;;;;1999.90;999.90;;;;;;;;;;5059142;28;20127;-82
2023/10/20 13:38:48;;;;;;;1999.90;999.90;;;;;;;;;;5059697;28;20497;-82
2023/10/20 13:41:15;;;;;;;1999.90;999.90;;;;;;;;;;5056769;28;20068;-82
2023/10/20 13:43:42;;;;;;;1999.90;999.90;;;;;;;;;;5058265;28;20055;-82
2023/10/20 13:46:09;;;;;;;1999.90;999.90;;;;;;;;;;5058753;28;20417;-82
2023/10/20 13:48:36;;;;;;;1999.90;999.90;;;;;;;;;;5061735;28;20044;-81
2023/10/20 13:51:05;;;;;;;1999.90;999.90;;;;;;;;;;5060362;28;20053;-83
2023/10/20 13:53:31;;;;;;;1999.90;999.90;;;;;;;;;;5057049;28;20099;-81
2023/10/20 13:55:58;;;;;;;1999.90;999.90;;;;;;;;;;5056528;28;20049;-82
2023/10/20 13:58:26;;;;;;;1999.90;999.90;;;;;;;;;;5056623;28;20072;-81
2023/10/20 14:00:53;;;;;;;1999.90;999.90;;;;;;;;;;5061652;28;20041;-82
2023/10/20 14:03:19;;;;;;;1999.90;999.90;;;;;;;;;;5056415;28;20045;-82
2023/10/20 14:05:52;;;;;;;1999.90;999.90;;;;;;;;;;5059143;28;20747;-81
2023/10/20 14:08:19;;;;;;;1999.90;999.90;;;;;;;;;;5055714;28;20102;-82
2023/10/20 14:10:48;;;;;;;1999.90;999.90;;;;;;;;;;5060153;28;20055;-82